sensor_id;sensor_type;location;lat;lon;timestamp;temperature;humidity
81842;DHT22;71284;50.918;7.092;2024-02-21T00:00:07;12.70;49.80
81842;DHT22;71284;50.918;7.092;2024-02-21T00:02:34;12.80;50.00
81842;DHT22;71284;50.918;7.092;2024-02-21T00:05:01;12.80;49.90
81842;DHT22;71284;50.918;7.092;2024-02-21T00:07:27;12.80;50.00
81842;DHT22;71284;50.918;7.092;2024-02-21T00:09:54;12.90;50.40
81842;DHT22;71284;50.918;7.092;2024-02-21T00:12:20;12.80;51.10
81842;DHT22;71284;50.918;7.092;2024-02-21T00:14:47;12.80;50.90
81842;DHT22;71284;50.918;7.092;2024-02-21T00:17:14;12.90;50.20
81842;DHT22;71284;50.918;7.092;2024-02-21T00:19:40;12.90;50.60
81842;DHT22;71284;50.918;7.092;2024-02-21T00:22:07;12.90;50.00
81842;DHT22;71284;50.918;7.092;2024-02-21T00:24:34;12.90;50.10
81842;DHT22;71284;50.918;7.092;2024-02-21T00:27:00;12.90;50.90
81842;DHT22;71284;50.918;7.092;2024-02-21T00:29:27;12.90;50.20
81842;DHT22;71284;50.918;7.092;2024-02-21T00:31:53;12.90;50.20
81842;DHT22;71284;50.918;7.092;2024-02-21T00:34:20;12.80;50.40
81842;DHT22;71284;50.918;7.092;2024-02-21T00:36:46;12.80;50.50
81842;DHT22;71284;50.918;7.092;2024-02-21T00:39:13;12.80;50.40
81842;DHT22;71284;50.918;7.092;2024-02-21T00:41:40;12.90;50.50
81842;DHT22;71284;50.918;7.092;2024-02-21T00:44:06;12.80;50.50
81842;DHT22;71284;50.918;7.092;2024-02-21T00:46:33;12.80;51.00
81842;DHT22;71284;50.918;7.092;2024-02-21T00:48:59;12.90;51.50
81842;DHT22;71284;50.918;7.092;2024-02-21T00:51:26;12.90;51.10
81842;DHT22;71284;50.918;7.092;2024-02-21T00:53:53;12.90;50.80
81842;DHT22;71284;50.918;7.092;2024-02-21T00:56:19;12.90;50.60
81842;DHT22;71284;50.918;7.092;2024-02-21T00:58:46;13.00;50.60
81842;DHT22;71284;50.918;7.092;2024-02-21T01:01:12;12.90;50.30
81842;DHT22;71284;50.918;7.092;2024-02-21T01:03:39;12.90;50.50
81842;DHT22;71284;50.918;7.092;2024-02-21T01:06:06;12.80;50.90
81842;DHT22;71284;50.918;7.092;2024-02-21T01:08:32;12.90;50.80
81842;DHT22;71284;50.918;7.092;2024-02-21T01:10:59;12.90;51.00
81842;DHT22;71284;50.918;7.092;2024-02-21T01:13:25;12.70;51.20
81842;DHT22;71284;50.918;7.092;2024-02-21T01:15:52;12.70;51.10
81842;DHT22;71284;50.918;7.092;2024-02-21T01:18:19;12.80;51.00
81842;DHT22;71284;50.918;7.092;2024-02-21T01:20:45;12.80;50.90
81842;DHT22;71284;50.918;7.092;2024-02-21T01:23:12;12.80;50.90
81842;DHT22;71284;50.918;7.092;2024-02-21T01:25:38;12.80;51.00
81842;DHT22;71284;50.918;7.092;2024-02-21T01:28:05;12.80;50.90
81842;DHT22;71284;50.918;7.092;2024-02-21T01:30:32;12.80;50.90
81842;DHT22;71284;50.918;7.092;2024-02-21T01:32:58;12.80;51.70
81842;DHT22;71284;50.918;7.092;2024-02-21T01:35:25;12.70;51.60
81842;DHT22;71284;50.918;7.092;2024-02-21T01:37:51;12.70;51.40
81842;DHT22;71284;50.918;7.092;2024-02-21T01:40:18;12.80;51.40
81842;DHT22;71284;50.918;7.092;2024-02-21T01:42:44;12.80;51.20
81842;DHT22;71284;50.918;7.092;2024-02-21T01:45:11;12.80;52.00
81842;DHT22;71284;50.918;7.092;2024-02-21T01:47:38;12.80;51.60
81842;DHT22;71284;50.918;7.092;2024-02-21T01:50:04;12.80;51.50
81842;DHT22;71284;50.918;7.092;2024-02-21T01:52:31;12.80;51.30
81842;DHT22;71284;50.918;7.092;2024-02-21T01:54:58;12.70;51.20
81842;DHT22;71284;50.918;7.092;2024-02-21T01:57:24;12.80;51.40
81842;DHT22;71284;50.918;7.092;2024-02-21T01:59:51;12.70;51.60
81842;DHT22;71284;50.918;7.092;2024-02-21T02:02:17;12.70;51.40
81842;DHT22;71284;50.918;7.092;2024-02-21T02:04:44;12.70;51.30
81842;DHT22;71284;50.918;7.092;2024-02-21T02:07:11;12.70;51.30
81842;DHT22;71284;50.918;7.092;2024-02-21T02:09:37;12.70;51.20
81842;DHT22;71284;50.918;7.092;2024-02-21T02:12:04;12.60;51.30
81842;DHT22;71284;50.918;7.092;2024-02-21T02:14:31;12.70;51.40
81842;DHT22;71284;50.918;7.092;2024-02-21T02:16:57;12.60;51.70
81842;DHT22;71284;50.918;7.092;2024-02-21T02:19:24;12.70;51.30
81842;DHT22;71284;50.918;7.092;2024-02-21T02:21:51;12.70;51.60
81842;DHT22;71284;50.918;7.092;2024-02-21T02:24:19;12.60;51.90
81842;DHT22;71284;50.918;7.092;2024-02-21T02:26:46;12.50;52.10
81842;DHT22;71284;50.918;7.092;2024-02-21T02:29:12;12.60;52.10
81842;DHT22;71284;50.918;7.092;2024-02-21T02:31:39;12.60;52.10
81842;DHT22;71284;50.918;7.092;2024-02-21T02:34:05;12.60;52.10
81842;DHT22;71284;50.918;7.092;2024-02-21T02:36:32;12.60;52.20
81842;DHT22;71284;50.918;7.092;2024-02-21T02:38:58;12.60;52.30
81842;DHT22;71284;50.918;7.092;2024-02-21T02:41:25;12.50;52.50
81842;DHT22;71284;50.918;7.092;2024-02-21T02:43:52;12.50;52.60
81842;DHT22;71284;50.918;7.092;2024-02-21T02:46:18;12.50;52.90
81842;DHT22;71284;50.918;7.092;2024-02-21T02:48:45;12.60;53.00
81842;DHT22;71284;50.918;7.092;2024-02-21T02:51:11;12.60;53.30
81842;DHT22;71284;50.918;7.092;2024-02-21T02:53:38;12.60;52.80
81842;DHT22;71284;50.918;7.092;2024-02-21T02:56:05;12.50;52.90
81842;DHT22;71284;50.918;7.092;2024-02-21T02:58:31;12.50;53.00
81842;DHT22;71284;50.918;7.092;2024-02-21T03:00:58;12.60;52.70
81842;DHT22;71284;50.918;7.092;2024-02-21T03:03:24;12.60;52.70
81842;DHT22;71284;50.918;7.092;2024-02-21T03:05:51;12.70;52.70
81842;DHT22;71284;50.918;7.092;2024-02-21T03:08:18;12.70;52.80
81842;DHT22;71284;50.918;7.092;2024-02-21T03:10:44;12.70;52.40
81842;DHT22;71284;50.918;7.092;2024-02-21T03:13:11;12.70;52.30
81842;DHT22;71284;50.918;7.092;2024-02-21T03:15:37;12.60;52.80
81842;DHT22;71284;50.918;7.092;2024-02-21T03:18:05;12.50;52.80
81842;DHT22;71284;50.918;7.092;2024-02-21T03:20:31;12.40;53.70
81842;DHT22;71284;50.918;7.092;2024-02-21T03:22:58;12.50;53.30
81842;DHT22;71284;50.918;7.092;2024-02-21T03:25:25;12.50;53.00
81842;DHT22;71284;50.918;7.092;2024-02-21T03:27:51;12.50;52.80
81842;DHT22;71284;50.918;7.092;2024-02-21T03:30:18;12.50;52.80
81842;DHT22;71284;50.918;7.092;2024-02-21T03:32:44;12.60;52.70
81842;DHT22;71284;50.918;7.092;2024-02-21T03:35:11;12.60;52.80
81842;DHT22;71284;50.918;7.092;2024-02-21T03:37:38;12.60;52.90
81842;DHT22;71284;50.918;7.092;2024-02-21T03:40:08;12.50;53.00
81842;DHT22;71284;50.918;7.092;2024-02-21T03:42:34;12.50;52.90
81842;DHT22;71284;50.918;7.092;2024-02-21T03:45:01;12.50;52.80
81842;DHT22;71284;50.918;7.092;2024-02-21T03:47:28;12.50;53.10
81842;DHT22;71284;50.918;7.092;2024-02-21T03:49:54;12.30;53.40
81842;DHT22;71284;50.918;7.092;2024-02-21T03:52:21;12.30;53.40
81842;DHT22;71284;50.918;7.092;2024-02-21T03:54:47;12.30;53.40
81842;DHT22;71284;50.918;7.092;2024-02-21T03:57:14;12.30;53.80
81842;DHT22;71284;50.918;7.092;2024-02-21T03:59:41;12.30;53.80
81842;DHT22;71284;50.918;7.092;2024-02-21T04:02:07;12.30;53.30
81842;DHT22;71284;50.918;7.092;2024-02-21T04:04:34;12.30;53.30
81842;DHT22;71284;50.918;7.092;2024-02-21T04:07:00;12.30;53.20
81842;DHT22;71284;50.918;7.092;2024-02-21T04:09:27;12.30;53.70
81842;DHT22;71284;50.918;7.092;2024-02-21T04:11:53;12.20;53.50
81842;DHT22;71284;50.918;7.092;2024-02-21T04:14:20;12.20;53.50
81842;DHT22;71284;50.918;7.092;2024-02-21T04:16:47;12.20;53.50
81842;DHT22;71284;50.918;7.092;2024-02-21T04:19:13;12.20;53.30
81842;DHT22;71284;50.918;7.092;2024-02-21T04:21:40;12.20;53.50
81842;DHT22;71284;50.918;7.092;2024-02-21T04:24:06;12.10;53.60
81842;DHT22;71284;50.918;7.092;2024-02-21T04:26:33;12.20;53.70
81842;DHT22;71284;50.918;7.092;2024-02-21T04:29:00;12.10;53.90
81842;DHT22;71284;50.918;7.092;2024-02-21T04:31:26;12.10;53.90
81842;DHT22;71284;50.918;7.092;2024-02-21T04:33:53;12.00;54.40
81842;DHT22;71284;50.918;7.092;2024-02-21T04:36:19;12.10;54.10
81842;DHT22;71284;50.918;7.092;2024-02-21T04:38:46;12.20;54.60
81842;DHT22;71284;50.918;7.092;2024-02-21T04:41:13;12.30;53.90
81842;DHT22;71284;50.918;7.092;2024-02-21T04:43:39;12.30;53.40
81842;DHT22;71284;50.918;7.092;2024-02-21T04:46:06;12.30;53.40
81842;DHT22;71284;50.918;7.092;2024-02-21T04:48:32;12.30;54.10
81842;DHT22;71284;50.918;7.092;2024-02-21T04:50:59;12.10;53.70
81842;DHT22;71284;50.918;7.092;2024-02-21T04:53:26;12.00;53.70
81842;DHT22;71284;50.918;7.092;2024-02-21T04:55:52;12.00;53.90
81842;DHT22;71284;50.918;7.092;2024-02-21T04:58:19;11.90;53.80
81842;DHT22;71284;50.918;7.092;2024-02-21T05:00:45;12.10;53.70
81842;DHT22;71284;50.918;7.092;2024-02-21T05:03:12;12.00;53.60
81842;DHT22;71284;50.918;7.092;2024-02-21T05:05:39;12.00;53.50
81842;DHT22;71284;50.918;7.092;2024-02-21T05:08:05;12.10;53.50
81842;DHT22;71284;50.918;7.092;2024-02-21T05:10:32;12.20;53.10
81842;DHT22;71284;50.918;7.092;2024-02-21T05:12:58;12.30;52.90
81842;DHT22;71284;50.918;7.092;2024-02-21T05:15:25;12.30;52.90
81842;DHT22;71284;50.918;7.092;2024-02-21T05:17:52;12.30;52.80
81842;DHT22;71284;50.918;7.092;2024-02-21T05:20:18;12.30;52.80
81842;DHT22;71284;50.918;7.092;2024-02-21T05:22:45;12.40;52.50
81842;DHT22;71284;50.918;7.092;2024-02-21T05:25:11;12.40;52.70
81842;DHT22;71284;50.918;7.092;2024-02-21T05:27:38;12.40;52.70
81842;DHT22;71284;50.918;7.092;2024-02-21T05:30:05;12.40;52.20
81842;DHT22;71284;50.918;7.092;2024-02-21T05:32:32;12.40;52.50
81842;DHT22;71284;50.918;7.092;2024-02-21T05:34:58;12.40;52.40
81842;DHT22;71284;50.918;7.092;2024-02-21T05:37:25;12.40;52.50
81842;DHT22;71284;50.918;7.092;2024-02-21T05:39:51;12.30;52.90
81842;DHT22;71284;50.918;7.092;2024-02-21T05:42:18;12.30;52.90
81842;DHT22;71284;50.918;7.092;2024-02-21T05:44:45;12.30;52.90
81842;DHT22;71284;50.918;7.092;2024-02-21T05:47:11;12.30;52.90
81842;DHT22;71284;50.918;7.092;2024-02-21T05:49:39;12.30;53.10
81842;DHT22;71284;50.918;7.092;2024-02-21T05:52:04;12.30;53.10
81842;DHT22;71284;50.918;7.092;2024-02-21T05:54:31;12.30;52.90
81842;DHT22;71284;50.918;7.092;2024-02-21T05:56:58;12.30;53.10
81842;DHT22;71284;50.918;7.092;2024-02-21T05:59:24;12.30;53.10
81842;DHT22;71284;50.918;7.092;2024-02-21T06:01:55;12.30;54.30
81842;DHT22;71284;50.918;7.092;2024-02-21T06:04:21;12.30;53.80
81842;DHT22;71284;50.918;7.092;2024-02-21T06:06:48;12.40;53.00
81842;DHT22;71284;50.918;7.092;2024-02-21T06:09:14;12.30;53.80
81842;DHT22;71284;50.918;7.092;2024-02-21T06:11:41;12.30;53.60
81842;DHT22;71284;50.918;7.092;2024-02-21T06:14:07;12.30;53.80
81842;DHT22;71284;50.918;7.092;2024-02-21T06:16:34;12.30;53.10
81842;DHT22;71284;50.918;7.092;2024-02-21T06:19:01;12.40;53.30
81842;DHT22;71284;50.918;7.092;2024-02-21T06:21:29;12.40;52.80
81842;DHT22;71284;50.918;7.092;2024-02-21T06:23:56;12.40;53.70
81842;DHT22;71284;50.918;7.092;2024-02-21T06:26:22;12.30;53.80
81842;DHT22;71284;50.918;7.092;2024-02-21T06:28:49;12.10;54.20
81842;DHT22;71284;50.918;7.092;2024-02-21T06:31:15;12.10;54.10
81842;DHT22;71284;50.918;7.092;2024-02-21T06:33:42;12.10;54.20
81842;DHT22;71284;50.918;7.092;2024-02-21T06:36:09;12.20;54.00
81842;DHT22;71284;50.918;7.092;2024-02-21T06:38:35;12.20;53.70
81842;DHT22;71284;50.918;7.092;2024-02-21T06:41:02;12.20;53.10
81842;DHT22;71284;50.918;7.092;2024-02-21T06:43:28;12.20;53.30
81842;DHT22;71284;50.918;7.092;2024-02-21T06:45:55;12.10;53.00
81842;DHT22;71284;50.918;7.092;2024-02-21T06:48:22;12.20;52.40
81842;DHT22;71284;50.918;7.092;2024-02-21T06:50:48;12.20;52.40
81842;DHT22;71284;50.918;7.092;2024-02-21T06:53:15;12.10;52.80
81842;DHT22;71284;50.918;7.092;2024-02-21T06:55:41;12.20;52.50
81842;DHT22;71284;50.918;7.092;2024-02-21T06:58:08;12.20;52.50
81842;DHT22;71284;50.918;7.092;2024-02-21T07:00:35;12.20;52.10
81842;DHT22;71284;50.918;7.092;2024-02-21T07:03:01;12.20;52.50
81842;DHT22;71284;50.918;7.092;2024-02-21T07:05:28;12.20;52.40
81842;DHT22;71284;50.918;7.092;2024-02-21T07:07:54;12.20;52.20
81842;DHT22;71284;50.918;7.092;2024-02-21T07:10:21;12.20;52.40
81842;DHT22;71284;50.918;7.092;2024-02-21T07:12:48;12.10;52.40
81842;DHT22;71284;50.918;7.092;2024-02-21T07:15:14;12.20;52.30
81842;DHT22;71284;50.918;7.092;2024-02-21T07:17:41;12.20;52.30
81842;DHT22;71284;50.918;7.092;2024-02-21T07:20:08;12.20;52.20
81842;DHT22;71284;50.918;7.092;2024-02-21T07:22:35;12.20;52.20
81842;DHT22;71284;50.918;7.092;2024-02-21T07:25:01;12.20;52.20
81842;DHT22;71284;50.918;7.092;2024-02-21T07:27:28;12.20;52.20
81842;DHT22;71284;50.918;7.092;2024-02-21T07:29:54;12.30;52.20
81842;DHT22;71284;50.918;7.092;2024-02-21T07:32:21;12.30;52.20
81842;DHT22;71284;50.918;7.092;2024-02-21T07:34:48;12.20;52.60
81842;DHT22;71284;50.918;7.092;2024-02-21T07:37:14;12.20;52.40
81842;DHT22;71284;50.918;7.092;2024-02-21T07:39:41;11.90;53.20
81842;DHT22;71284;50.918;7.092;2024-02-21T07:42:07;11.50;54.20
81842;DHT22;71284;50.918;7.092;2024-02-21T07:44:34;11.80;54.10
81842;DHT22;71284;50.918;7.092;2024-02-21T07:47:00;12.00;53.10
81842;DHT22;71284;50.918;7.092;2024-02-21T07:49:27;12.20;52.70
81842;DHT22;71284;50.918;7.092;2024-02-21T07:51:54;12.10;52.60
81842;DHT22;71284;50.918;7.092;2024-02-21T07:54:20;12.00;52.90
81842;DHT22;71284;50.918;7.092;2024-02-21T07:56:47;12.00;53.30
81842;DHT22;71284;50.918;7.092;2024-02-21T07:59:13;11.90;53.40
81842;DHT22;71284;50.918;7.092;2024-02-21T08:01:40;11.90;53.40
81842;DHT22;71284;50.918;7.092;2024-02-21T08:04:07;11.80;53.50
81842;DHT22;71284;50.918;7.092;2024-02-21T08:06:33;11.80;53.30
81842;DHT22;71284;50.918;7.092;2024-02-21T08:09:00;11.90;53.40
81842;DHT22;71284;50.918;7.092;2024-02-21T08:11:26;12.00;53.20
81842;DHT22;71284;50.918;7.092;2024-02-21T08:13:53;11.90;53.10
81842;DHT22;71284;50.918;7.092;2024-02-21T08:16:20;11.90;53.20
81842;DHT22;71284;50.918;7.092;2024-02-21T08:18:46;11.90;53.50
81842;DHT22;71284;50.918;7.092;2024-02-21T08:21:13;12.00;52.80
81842;DHT22;71284;50.918;7.092;2024-02-21T08:23:39;12.00;52.70
81842;DHT22;71284;50.918;7.092;2024-02-21T08:26:06;12.00;52.70
81842;DHT22;71284;50.918;7.092;2024-02-21T08:28:33;12.10;52.40
81842;DHT22;71284;50.918;7.092;2024-02-21T08:30:59;12.00;52.50
81842;DHT22;71284;50.918;7.092;2024-02-21T08:33:26;12.10;52.50
81842;DHT22;71284;50.918;7.092;2024-02-21T08:35:52;12.30;51.90
81842;DHT22;71284;50.918;7.092;2024-02-21T08:38:19;12.30;52.00
81842;DHT22;71284;50.918;7.092;2024-02-21T08:40:46;12.30;51.70
81842;DHT22;71284;50.918;7.092;2024-02-21T08:43:12;12.10;52.00
81842;DHT22;71284;50.918;7.092;2024-02-21T08:45:39;12.00;51.80
81842;DHT22;71284;50.918;7.092;2024-02-21T08:48:06;12.00;52.10
81842;DHT22;71284;50.918;7.092;2024-02-21T08:50:33;12.10;51.30
81842;DHT22;71284;50.918;7.092;2024-02-21T08:52:59;11.90;51.70
81842;DHT22;71284;50.918;7.092;2024-02-21T08:55:26;11.90;51.80
81842;DHT22;71284;50.918;7.092;2024-02-21T08:57:52;12.00;51.40
81842;DHT22;71284;50.918;7.092;2024-02-21T09:00:19;12.10;51.10
81842;DHT22;71284;50.918;7.092;2024-02-21T09:02:46;11.80;51.70
81842;DHT22;71284;50.918;7.092;2024-02-21T09:05:13;12.10;51.30
81842;DHT22;71284;50.918;7.092;2024-02-21T09:07:39;12.40;50.30
81842;DHT22;71284;50.918;7.092;2024-02-21T09:10:06;12.40;50.00
81842;DHT22;71284;50.918;7.092;2024-02-21T09:12:33;12.50;49.70
81842;DHT22;71284;50.918;7.092;2024-02-21T09:14:59;12.70;48.90
81842;DHT22;71284;50.918;7.092;2024-02-21T09:17:26;12.70;49.20
81842;DHT22;71284;50.918;7.092;2024-02-21T09:19:53;13.00;48.40
81842;DHT22;71284;50.918;7.092;2024-02-21T09:22:19;13.10;48.40
81842;DHT22;71284;50.918;7.092;2024-02-21T09:24:46;13.30;47.70
81842;DHT22;71284;50.918;7.092;2024-02-21T09:27:12;13.40;47.00
81842;DHT22;71284;50.918;7.092;2024-02-21T09:29:39;13.10;47.80
81842;DHT22;71284;50.918;7.092;2024-02-21T09:32:06;12.80;48.00
81842;DHT22;71284;50.918;7.092;2024-02-21T09:34:32;12.90;47.90
81842;DHT22;71284;50.918;7.092;2024-02-21T09:36:59;12.90;48.90
81842;DHT22;71284;50.918;7.092;2024-02-21T09:39:26;13.00;47.60
81842;DHT22;71284;50.918;7.092;2024-02-21T09:41:54;13.00;47.40
81842;DHT22;71284;50.918;7.092;2024-02-21T09:44:29;12.90;47.60
81842;DHT22;71284;50.918;7.092;2024-02-21T09:46:57;13.00;47.40
81842;DHT22;71284;50.918;7.092;2024-02-21T09:49:32;12.70;47.40
81842;DHT22;71284;50.918;7.092;2024-02-21T09:52:01;12.70;47.50
81842;DHT22;71284;50.918;7.092;2024-02-21T09:54:29;12.90;47.60
81842;DHT22;71284;50.918;7.092;2024-02-21T09:56:56;12.80;47.40
81842;DHT22;71284;50.918;7.092;2024-02-21T09:59:23;13.00;46.60
81842;DHT22;71284;50.918;7.092;2024-02-21T10:01:49;13.20;46.20
81842;DHT22;71284;50.918;7.092;2024-02-21T10:04:16;13.30;47.10
81842;DHT22;71284;50.918;7.092;2024-02-21T10:06:43;13.40;46.10
81842;DHT22;71284;50.918;7.092;2024-02-21T10:09:19;13.30;47.60
81842;DHT22;71284;50.918;7.092;2024-02-21T10:11:36;13.40;45.90
81842;DHT22;71284;50.918;7.092;2024-02-21T10:14:04;13.40;46.00
81842;DHT22;71284;50.918;7.092;2024-02-21T10:16:30;13.60;45.20
81842;DHT22;71284;50.918;7.092;2024-02-21T10:18:56;13.90;44.50
81842;DHT22;71284;50.918;7.092;2024-02-21T10:21:23;14.00;43.70
81842;DHT22;71284;50.918;7.092;2024-02-21T10:23:50;13.70;45.20
81842;DHT22;71284;50.918;7.092;2024-02-21T10:26:17;13.90;44.70
81842;DHT22;71284;50.918;7.092;2024-02-21T10:28:43;13.60;44.90
81842;DHT22;71284;50.918;7.092;2024-02-21T10:31:10;13.70;44.90
81842;DHT22;71284;50.918;7.092;2024-02-21T10:33:36;13.80;44.30
81842;DHT22;71284;50.918;7.092;2024-02-21T10:36:08;13.70;45.10
81842;DHT22;71284;50.918;7.092;2024-02-21T10:38:34;13.90;44.30
81842;DHT22;71284;50.918;7.092;2024-02-21T10:41:00;13.80;43.70
81842;DHT22;71284;50.918;7.092;2024-02-21T10:43:27;13.90;44.30
81842;DHT22;71284;50.918;7.092;2024-02-21T10:45:54;13.90;43.50
81842;DHT22;71284;50.918;7.092;2024-02-21T10:48:24;14.00;43.50
81842;DHT22;71284;50.918;7.092;2024-02-21T10:50:56;14.00;43.20
81842;DHT22;71284;50.918;7.092;2024-02-21T10:53:29;13.90;43.30
81842;DHT22;71284;50.918;7.092;2024-02-21T10:55:56;13.60;43.90
81842;DHT22;71284;50.918;7.092;2024-02-21T10:58:18;13.80;43.80
81842;DHT22;71284;50.918;7.092;2024-02-21T11:00:45;14.20;43.00
81842;DHT22;71284;50.918;7.092;2024-02-21T11:03:12;14.10;43.50
81842;DHT22;71284;50.918;7.092;2024-02-21T11:05:38;14.10;44.10
81842;DHT22;71284;50.918;7.092;2024-02-21T11:08:05;14.40;42.90
81842;DHT22;71284;50.918;7.092;2024-02-21T11:10:32;14.70;42.50
81842;DHT22;71284;50.918;7.092;2024-02-21T11:13:06;14.70;42.90
81842;DHT22;71284;50.918;7.092;2024-02-21T11:15:32;14.90;41.90
81842;DHT22;71284;50.918;7.092;2024-02-21T11:17:58;15.00;41.50
81842;DHT22;71284;50.918;7.092;2024-02-21T11:20:33;14.80;41.10
81842;DHT22;71284;50.918;7.092;2024-02-21T11:22:59;14.90;41.40
81842;DHT22;71284;50.918;7.092;2024-02-21T11:25:26;14.80;41.30
81842;DHT22;71284;50.918;7.092;2024-02-21T11:28:00;14.60;42.60
81842;DHT22;71284;50.918;7.092;2024-02-21T11:30:27;14.80;41.40
81842;DHT22;71284;50.918;7.092;2024-02-21T11:33:00;15.10;41.10
81842;DHT22;71284;50.918;7.092;2024-02-21T11:35:30;15.40;42.00
81842;DHT22;71284;50.918;7.092;2024-02-21T11:37:53;15.70;40.00
81842;DHT22;71284;50.918;7.092;2024-02-21T11:40:20;15.30;41.60
81842;DHT22;71284;50.918;7.092;2024-02-21T11:42:46;15.20;40.70
81842;DHT22;71284;50.918;7.092;2024-02-21T11:45:14;15.20;40.50
81842;DHT22;71284;50.918;7.092;2024-02-21T11:47:42;15.10;41.80
81842;DHT22;71284;50.918;7.092;2024-02-21T11:50:09;15.10;41.40
81842;DHT22;71284;50.918;7.092;2024-02-21T11:52:33;15.30;41.40
81842;DHT22;71284;50.918;7.092;2024-02-21T11:54:59;15.20;41.10
81842;DHT22;71284;50.918;7.092;2024-02-21T11:57:26;14.80;42.00
81842;DHT22;71284;50.918;7.092;2024-02-21T11:59:53;14.90;41.70
81842;DHT22;71284;50.918;7.092;2024-02-21T12:02:19;15.00;41.10
81842;DHT22;71284;50.918;7.092;2024-02-21T12:04:46;15.00;41.70
81842;DHT22;71284;50.918;7.092;2024-02-21T12:07:12;14.80;42.00
81842;DHT22;71284;50.918;7.092;2024-02-21T12:09:41;15.00;43.10
81842;DHT22;71284;50.918;7.092;2024-02-21T12:12:06;14.70;41.80
81842;DHT22;71284;50.918;7.092;2024-02-21T12:14:33;14.90;42.70
81842;DHT22;71284;50.918;7.092;2024-02-21T12:16:59;14.80;41.90
81842;DHT22;71284;50.918;7.092;2024-02-21T12:19:26;15.10;41.50
81842;DHT22;71284;50.918;7.092;2024-02-21T12:21:53;15.20;40.90
81842;DHT22;71284;50.918;7.092;2024-02-21T12:24:22;14.80;42.00
81842;DHT22;71284;50.918;7.092;2024-02-21T12:26:48;14.90;42.20
81842;DHT22;71284;50.918;7.092;2024-02-21T12:29:15;14.70;41.90
81842;DHT22;71284;50.918;7.092;2024-02-21T12:31:41;14.50;42.50
81842;DHT22;71284;50.918;7.092;2024-02-21T12:34:08;14.30;43.20
81842;DHT22;71284;50.918;7.092;2024-02-21T12:36:35;14.40;42.80
81842;DHT22;71284;50.918;7.092;2024-02-21T12:39:01;14.30;42.90
81842;DHT22;71284;50.918;7.092;2024-02-21T12:41:28;14.50;43.40
81842;DHT22;71284;50.918;7.092;2024-02-21T12:43:54;14.70;42.30
81842;DHT22;71284;50.918;7.092;2024-02-21T12:46:21;14.70;42.20
81842;DHT22;71284;50.918;7.092;2024-02-21T12:48:47;14.90;42.10
81842;DHT22;71284;50.918;7.092;2024-02-21T12:51:14;15.10;41.50
81842;DHT22;71284;50.918;7.092;2024-02-21T12:53:41;14.90;42.30
81842;DHT22;71284;50.918;7.092;2024-02-21T12:56:08;15.10;41.20
81842;DHT22;71284;50.918;7.092;2024-02-21T12:58:34;15.10;41.10
81842;DHT22;71284;50.918;7.092;2024-02-21T13:01:01;15.00;41.40
81842;DHT22;71284;50.918;7.092;2024-02-21T13:03:28;14.70;42.00
81842;DHT22;71284;50.918;7.092;2024-02-21T13:05:54;14.60;41.70
81842;DHT22;71284;50.918;7.092;2024-02-21T13:08:21;14.80;41.40
81842;DHT22;71284;50.918;7.092;2024-02-21T13:10:48;15.10;40.70
81842;DHT22;71284;50.918;7.092;2024-02-21T13:13:15;14.80;42.00
81842;DHT22;71284;50.918;7.092;2024-02-21T13:15:41;14.80;41.60
81842;DHT22;71284;50.918;7.092;2024-02-21T13:18:08;14.70;42.00
81842;DHT22;71284;50.918;7.092;2024-02-21T13:20:35;14.30;43.20
81842;DHT22;71284;50.918;7.092;2024-02-21T13:23:01;14.40;43.40
81842;DHT22;71284;50.918;7.092;2024-02-21T13:25:28;14.60;41.90
81842;DHT22;71284;50.918;7.092;2024-02-21T13:27:55;14.70;42.60
81842;DHT22;71284;50.918;7.092;2024-02-21T13:30:21;14.50;42.60
81842;DHT22;71284;50.918;7.092;2024-02-21T13:32:47;14.90;41.50
81842;DHT22;71284;50.918;7.092;2024-02-21T13:35:14;14.90;42.00
81842;DHT22;71284;50.918;7.092;2024-02-21T13:37:41;15.00;41.70
81842;DHT22;71284;50.918;7.092;2024-02-21T13:40:08;14.90;41.50
81842;DHT22;71284;50.918;7.092;2024-02-21T13:42:35;15.00;42.00
81842;DHT22;71284;50.918;7.092;2024-02-21T13:45:02;15.20;41.80
81842;DHT22;71284;50.918;7.092;2024-02-21T13:47:28;15.00;41.50
81842;DHT22;71284;50.918;7.092;2024-02-21T13:49:55;14.90;41.00
81842;DHT22;71284;50.918;7.092;2024-02-21T13:52:22;15.10;40.90
81842;DHT22;71284;50.918;7.092;2024-02-21T13:54:48;15.10;40.90
81842;DHT22;71284;50.918;7.092;2024-02-21T13:57:15;14.70;41.60
81842;DHT22;71284;50.918;7.092;2024-02-21T13:59:41;14.80;42.70
81842;DHT22;71284;50.918;7.092;2024-02-21T14:02:08;14.60;42.20
81842;DHT22;71284;50.918;7.092;2024-02-21T14:04:35;14.60;42.30
81842;DHT22;71284;50.918;7.092;2024-02-21T14:07:01;14.90;41.90
81842;DHT22;71284;50.918;7.092;2024-02-21T14:09:28;14.90;41.30
81842;DHT22;71284;50.918;7.092;2024-02-21T14:11:55;14.70;41.60
81842;DHT22;71284;50.918;7.092;2024-02-21T14:14:21;14.70;42.00
81842;DHT22;71284;50.918;7.092;2024-02-21T14:16:48;14.70;41.60
81842;DHT22;71284;50.918;7.092;2024-02-21T14:19:14;14.70;41.40
81842;DHT22;71284;50.918;7.092;2024-02-21T14:21:41;14.70;41.40
81842;DHT22;71284;50.918;7.092;2024-02-21T14:24:07;14.90;40.50
81842;DHT22;71284;50.918;7.092;2024-02-21T14:26:36;14.90;40.60
81842;DHT22;71284;50.918;7.092;2024-02-21T14:29:02;15.00;40.60
81842;DHT22;71284;50.918;7.092;2024-02-21T14:31:32;14.90;40.60
81842;DHT22;71284;50.918;7.092;2024-02-21T14:33:59;14.90;40.90
81842;DHT22;71284;50.918;7.092;2024-02-21T14:36:26;14.80;41.00
81842;DHT22;71284;50.918;7.092;2024-02-21T14:38:52;14.60;41.90
81842;DHT22;71284;50.918;7.092;2024-02-21T14:41:19;14.40;42.50
81842;DHT22;71284;50.918;7.092;2024-02-21T14:43:45;14.20;42.80
81842;DHT22;71284;50.918;7.092;2024-02-21T14:46:12;14.60;41.90
81842;DHT22;71284;50.918;7.092;2024-02-21T14:48:39;14.70;41.40
81842;DHT22;71284;50.918;7.092;2024-02-21T14:51:05;14.50;42.10
81842;DHT22;71284;50.918;7.092;2024-02-21T14:53:32;14.60;41.90
81842;DHT22;71284;50.918;7.092;2024-02-21T14:55:58;14.60;42.70
81842;DHT22;71284;50.918;7.092;2024-02-21T14:58:25;14.60;41.80
81842;DHT22;71284;50.918;7.092;2024-02-21T15:00:52;14.70;42.90
81842;DHT22;71284;50.918;7.092;2024-02-21T15:03:18;14.70;42.00
81842;DHT22;71284;50.918;7.092;2024-02-21T15:05:46;14.70;42.20
81842;DHT22;71284;50.918;7.092;2024-02-21T15:08:12;14.60;41.90
81842;DHT22;71284;50.918;7.092;2024-02-21T15:10:39;14.50;42.70
81842;DHT22;71284;50.918;7.092;2024-02-21T15:13:06;14.40;42.10
81842;DHT22;71284;50.918;7.092;2024-02-21T15:15:32;14.70;41.80
81842;DHT22;71284;50.918;7.092;2024-02-21T15:17:59;14.50;42.10
81842;DHT22;71284;50.918;7.092;2024-02-21T15:20:25;14.40;42.20
81842;DHT22;71284;50.918;7.092;2024-02-21T15:22:52;14.60;42.40
81842;DHT22;71284;50.918;7.092;2024-02-21T15:25:18;14.50;41.50